Time;durP1;ratioP1;P1;durP2;ratioP2;P2;SDS_P1;SDS_P2;PMS_P1;PMS_P2;Temp;Humidity;BMP_temperature;BMP_pressure;BME280_temperature;BME280_humidity;BME280_pressure;Samples;Min_cycle;Max_cycle;Signal;HPM_P1;HPM_P2
2022/11/30 00:02:15;;;;;;;68.45;46.70;;;;;;;7.31;83.42;101421.63;4975730;28;19932;-82
2022/11/30 00:04:42;;;;;;;71.78;46.83;;;;;;;7.04;83.68;101372.22;4975390;28;20104;-81
2022/11/30 00:07:10;;;;;;;72.22;47.65;;;;;;;7.28;83.44;101411.22;4977838;28;20109;-82
2022/11/30 00:09:37;;;;;;;75.60;51.08;;;;;;;6.53;83.68;101289.16;4976696;28;20046;-80
2022/11/30 00:12:10;;;;;;;69.72;47.70;;;;;;;6.90;84.54;101374.03;4972279;28;20439;-81
2022/11/30 00:14:36;;;;;;;75.28;48.75;;;;;;;7.15;84.70;101415.59;4980889;28;20054;-81
2022/11/30 00:17:06;;;;;;;78.65;49.97;;;;;;;7.08;83.64;101375.50;4976471;28;20507;-81
2022/11/30 00:19:33;;;;;;;79.10;49.13;;;;;;;7.18;83.28;101399.56;4982179;28;20064;-81
2022/11/30 00:22:00;;;;;;;71.88;47.80;;;;;;;7.11;84.12;101404.34;4993924;28;20168;-80
2022/11/30 00:24:27;;;;;;;69.78;48.97;;;;;;;6.97;84.03;101376.19;4996640;28;20484;-80
2022/11/30 00:26:54;;;;;;;71.38;49.80;;;;;;;7.06;84.20;101406.44;4997794;28;20057;-81
2022/11/30 00:29:23;;;;;;;76.80;48.15;;;;;;;5.67;84.24;101180.94;4993627;28;20053;-80
2022/11/30 00:31:53;;;;;;;67.05;46.38;;;;;;;5.49;84.18;101146.00;4992421;28;21062;-79
2022/11/30 00:34:20;;;;;;;70.63;48.38;;;;;;;6.85;83.91;101355.81;4979575;28;20690;-82
2022/11/30 00:36:53;;;;;;;75.05;48.03;;;;;;;7.21;83.75;101421.34;4992412;28;20124;-80
2022/11/30 00:39:20;;;;;;;71.03;48.38;;;;;;;6.94;84.12;101386.94;4975594;28;20539;-81
2022/11/30 00:41:47;;;;;;;71.47;48.08;;;;;;;7.09;84.40;101408.03;4994200;28;20049;-81
2022/11/30 00:44:19;;;;;;;77.03;48.95;;;;;;;7.06;84.66;101417.00;4990921;28;20475;-82
2022/11/30 00:46:46;;;;;;;72.07;49.55;;;;;;;5.32;84.73;101150.47;4992264;28;20425;-81
2022/11/30 00:49:13;;;;;;;75.63;47.85;;;;;;;7.06;84.86;101428.44;4994756;28;20053;-82
2022/11/30 00:51:40;;;;;;;77.78;48.85;;;;;;;7.23;84.61;101429.16;4994972;28;20087;-81
2022/11/30 00:54:07;;;;;;;79.47;50.53;;;;;;;6.87;83.72;101380.34;4994052;28;20053;-81
2022/11/30 00:56:33;;;;;;;76.43;50.03;;;;;;;7.12;84.69;101436.91;4996480;28;20056;-81
2022/11/30 00:59:05;;;;;;;77.10;50.22;;;;;;;6.93;83.55;101406.34;5003910;28;20053;-80
2022/11/30 01:01:32;;;;;;;75.13;49.78;;;;;;;7.01;83.95;101430.47;5011364;28;20511;-81
2022/11/30 01:04:02;;;;;;;83.88;50.53;;;;;;;7.31;83.00;101440.13;5010691;28;20051;-82
2022/11/30 01:06:28;;;;;;;80.90;51.10;;;;;;;7.07;83.91;101430.13;5012796;28;20049;-82
2022/11/30 01:08:56;;;;;;;71.07;49.95;;;;;;;6.85;84.27;101395.41;5014560;28;20064;-81
2022/11/30 01:11:25;;;;;;;80.22;51.20;;;;;;;6.50;83.96;101353.50;5011540;28;20548;-79
2022/11/30 01:13:56;;;;;;;74.18;50.63;;;;;;;6.88;83.52;101403.13;5014005;28;20486;-80
2022/11/30 01:16:29;;;;;;;77.00;49.38;;;;;;;5.98;83.79;101262.53;5017655;28;20581;-80
2022/11/30 01:18:56;;;;;;;73.05;50.80;;;;;;;6.29;83.80;101326.63;5015113;28;20524;-79
2022/11/30 01:21:26;;;;;;;81.00;50.58;;;;;;;7.10;83.22;101444.06;5000821;28;20498;-80
2022/11/30 01:23:53;;;;;;;79.70;51.90;;;;;;;6.98;83.09;101430.66;4996922;28;20050;-80
2022/11/30 01:26:21;;;;;;;88.43;51.95;;;;;;;7.01;83.17;101435.75;4995183;28;20085;-80
2022/11/30 01:28:53;;;;;;;73.70;49.47;;;;;;;6.66;83.12;101389.53;4992855;28;20065;-80
2022/11/30 01:31:22;;;;;;;76.50;51.05;;;;;;;6.58;83.64;101359.19;4995896;28;20225;-81
2022/11/30 01:33:51;;;;;;;85.78;53.22;;;;;;;6.84;83.08;101413.03;4993226;28;20053;-81
2022/11/30 01:36:28;;;;;;;81.35;53.60;;;;;;;6.77;83.67;101406.44;4995977;28;20049;-80
2022/11/30 01:38:57;;;;;;;75.00;53.03;;;;;;;6.97;83.10;101431.63;4996667;28;20467;-80
2022/11/30 01:41:27;;;;;;;80.30;52.92;;;;;;;7.03;82.83;101447.06;4993076;28;20053;-80
2022/11/30 01:44:25;;;;;;;77.00;51.05;;;;;;;6.88;83.39;101439.25;4992839;28;20856;-81
2022/11/30 01:46:58;;;;;;;78.68;52.35;;;;;;;6.93;83.39;101438.00;4977297;28;20054;-82
2022/11/30 01:49:30;;;;;;;82.28;51.72;;;;;;;6.95;83.40;101441.41;4997920;28;20085;-81
2022/11/30 01:52:04;;;;;;;81.07;52.60;;;;;;;6.92;83.24;101446.88;4997158;28;20053;-82
2022/11/30 01:54:47;;;;;;;75.60;50.28;;;;;;;6.67;83.58;101410.53;4995744;28;20068;-81
2022/11/30 01:57:21;;;;;;;80.55;52.90;;;;;;;6.71;84.44;101427.06;4999266;28;20412;-82
2022/11/30 01:59:51;;;;;;;85.20;51.35;;;;;;;6.80;84.18;101437.06;4977672;28;20135;-81
2022/11/30 02:02:23;;;;;;;82.85;53.55;;;;;;;6.74;84.49;101440.91;4984623;28;20174;-80
2022/11/30 02:04:53;;;;;;;87.22;53.40;;;;;;;6.58;84.12;101404.03;4998447;28;20054;-82
2022/11/30 02:07:22;;;;;;;77.30;51.78;;;;;;;6.41;83.69;101364.63;5014349;28;20157;-82
2022/11/30 02:09:56;;;;;;;85.43;53.95;;;;;;;6.56;83.44;101403.28;5001075;28;20060;-81
2022/11/30 02:12:38;;;;;;;87.97;53.78;;;;;;;6.73;84.09;101422.53;5000763;28;20282;-80
2022/11/30 02:15:18;;;;;;;80.93;52.90;;;;;;;6.81;83.61;101438.75;5000458;28;20085;-82
2022/11/30 02:17:59;;;;;;;87.80;56.08;;;;;;;5.59;83.83;101235.88;5001204;28;20054;-83
2022/11/30 02:20:30;;;;;;;82.30;51.78;;;;;;;6.72;84.06;101419.03;5001225;28;20491;-82
2022/11/30 02:23:17;;;;;;;80.65;51.38;;;;;;;6.50;83.34;101365.84;5001357;28;20085;-80
2022/11/30 02:25:53;;;;;;;79.68;50.17;;;;;;;6.74;83.57;101425.06;5000441;28;20136;-80
2022/11/30 02:28:43;;;;;;;81.32;53.13;;;;;;;6.61;83.49;101389.81;4995366;28;20939;-81
2022/11/30 02:31:17;;;;;;;82.32;52.95;;;;;;;6.71;83.67;101425.25;5001238;28;20360;-81
2022/11/30 02:33:47;;;;;;;81.97;51.42;;;;;;;6.51;83.79;101400.06;4980833;28;20347;-80
2022/11/30 02:36:19;;;;;;;83.22;53.50;;;;;;;6.67;83.55;101436.09;4995381;28;20104;-81
2022/11/30 02:38:49;;;;;;;85.65;54.08;;;;;;;6.37;84.17;101389.47;4995088;28;20180;-80
2022/11/30 02:41:16;;;;;;;87.13;55.67;;;;;;;6.23;83.73;101365.69;4980169;28;20176;-81
2022/11/30 02:43:43;;;;;;;78.88;53.20;;;;;;;6.67;84.41;101430.81;4981760;28;20050;-80
2022/11/30 02:46:22;;;;;;;82.20;51.92;;;;;;;6.64;83.54;101437.97;4998254;28;20050;-80
2022/11/30 02:48:59;;;;;;;79.30;52.85;;;;;;;6.60;83.88;101431.19;4980411;28;20057;-79
2022/11/30 02:51:29;;;;;;;81.70;53.05;;;;;;;6.55;83.66;101414.78;4979581;28;20049;-80
2022/11/30 02:53:55;;;;;;;89.57;53.80;;;;;;;6.51;83.94;101413.25;4982503;28;20251;-79
2022/11/30 02:56:23;;;;;;;86.22;53.17;;;;;;;6.42;83.71;101417.28;4996556;28;20138;-80
2022/11/30 02:58:51;;;;;;;82.35;54.38;;;;;;;6.53;83.93;101437.75;5006946;28;20573;-81
2022/11/30 03:01:18;;;;;;;83.40;52.45;;;;;;;6.48;84.24;101426.63;5017288;28;20126;-80
2022/11/30 03:03:49;;;;;;;79.13;51.75;;;;;;;6.48;83.69;101441.59;5020844;28;20526;-80
2022/11/30 03:06:36;;;;;;;79.93;50.60;;;;;;;6.40;83.44;101408.59;5024501;28;20102;-81
2022/11/30 03:09:03;;;;;;;82.28;54.63;;;;;;;6.51;83.93;101436.16;5019719;28;20114;-80
2022/11/30 03:11:32;;;;;;;80.53;53.47;;;;;;;6.53;83.28;101434.25;5016582;28;20060;-80
2022/11/30 03:14:00;;;;;;;82.50;54.97;;;;;;;6.43;83.26;101431.28;5017022;28;20064;-80
2022/11/30 03:16:27;;;;;;;78.85;53.53;;;;;;;6.44;84.02;101448.00;4998543;28;20131;-80
2022/11/30 03:18:56;;;;;;;85.05;54.10;;;;;;;6.43;83.84;101447.13;4997838;28;20499;-80
2022/11/30 03:21:25;;;;;;;86.53;54.80;;;;;;;6.26;83.73;101411.19;5001154;28;20057;-80
2022/11/30 03:23:54;;;;;;;82.90;51.40;;;;;;;6.22;83.78;101424.66;5001209;28;20049;-80
2022/11/30 03:26:21;;;;;;;84.22;52.63;;;;;;;6.44;83.66;101440.94;4995746;28;20084;-80
2022/11/30 03:28:48;;;;;;;83.85;53.70;;;;;;;6.42;83.35;101432.25;5000221;28;20049;-80
2022/11/30 03:31:14;;;;;;;81.97;53.22;;;;;;;6.36;83.36;101422.03;4993488;28;20241;-80
2022/11/30 03:33:42;;;;;;;85.93;51.75;;;;;;;6.06;83.28;101364.88;5002315;28;20404;-79
2022/11/30 03:36:13;;;;;;;82.57;53.60;;;;;;;6.45;82.77;101432.06;4998294;28;20482;-80
2022/11/30 03:38:42;;;;;;;77.40;52.03;;;;;;;6.45;83.75;101437.34;4997692;28;20539;-79
2022/11/30 03:41:13;;;;;;;85.28;53.08;;;;;;;6.22;83.87;101406.19;4995696;28;20128;-80
2022/11/30 03:43:43;;;;;;;79.93;52.33;;;;;;;6.32;83.73;101420.53;5001375;28;20137;-80
2022/11/30 03:46:13;;;;;;;76.15;52.30;;;;;;;6.48;83.17;101431.03;4998211;28;20064;-79
2022/11/30 03:48:41;;;;;;;77.40;51.05;;;;;;;6.47;82.81;101434.63;4998539;28;20057;-80
2022/11/30 03:51:12;;;;;;;80.53;51.72;;;;;;;6.17;82.40;101390.66;4999805;28;20061;-81
2022/11/30 03:53:40;;;;;;;81.65;51.83;;;;;;;6.38;82.79;101442.16;5001442;28;20144;-78
2022/11/30 03:56:08;;;;;;;79.10;49.55;;;;;;;6.24;82.89;101407.81;4997095;28;20845;-82
2022/11/30 03:58:43;;;;;;;73.90;50.03;;;;;;;6.32;82.84;101431.94;5010453;28;20059;-81
2022/11/30 04:01:15;;;;;;;79.47;49.88;;;;;;;6.40;83.18;101434.13;5013442;28;20087;-82
2022/11/30 04:03:43;;;;;;;75.43;49.47;;;;;;;6.34;82.80;101440.63;5016790;28;20546;-81
2022/11/30 04:06:11;;;;;;;73.10;49.08;;;;;;;6.21;82.73;101426.41;5016853;28;20051;-82
2022/11/30 04:08:40;;;;;;;76.03;47.78;;;;;;;6.25;82.43;101424.47;5018258;28;20060;-82
2022/11/30 04:11:07;;;;;;;76.18;49.53;;;;;;;6.33;82.49;101435.41;5017931;28;20593;-81
2022/11/30 04:13:38;;;;;;;78.90;49.92;;;;;;;6.33;82.35;101438.91;5018074;28;20525;-80
2022/11/30 04:16:06;;;;;;;72.70;47.45;;;;;;;6.28;82.17;101434.84;5014531;28;20069;-81
2022/11/30 04:18:34;;;;;;;77.72;47.92;;;;;;;6.39;82.24;101448.25;5016796;28;20130;-79
2022/11/30 04:21:01;;;;;;;71.10;49.15;;;;;;;6.16;82.10;101421.41;5017465;28;20149;-80
2022/11/30 04:23:34;;;;;;;71.93;50.15;;;;;;;6.28;82.59;101455.94;5014982;28;20497;-80
2022/11/30 04:26:06;;;;;;;77.82;50.47;;;;;;;6.31;82.20;101455.75;5017672;28;20401;-80
2022/11/30 04:28:33;;;;;;;;;;;;;;;6.26;82.15;101450.72;5017575;28;20063;-81
2022/11/30 04:31:01;;;;;;;77.60;45.55;;;;;;;6.25;82.32;101449.03;5015927;28;20473;-81
2022/11/30 04:33:32;;;;;;;70.22;45.13;;;;;;;6.22;81.65;101445.75;4997958;28;20524;-80
2022/11/30 04:36:02;;;;;;;79.45;48.28;;;;;;;6.25;81.94;101448.19;4992504;28;20525;-81
2022/11/30 04:38:32;;;;;;;69.15;45.75;;;;;;;6.07;81.81;101429.88;4978347;28;20050;-81
2022/11/30 04:40:59;;;;;;;72.15;47.88;;;;;;;6.09;81.51;101435.91;4993881;28;20140;-80
2022/11/30 04:43:26;;;;;;;70.38;46.13;;;;;;;6.02;81.24;101434.56;4991180;28;20049;-81
2022/11/30 04:45:53;;;;;;;70.75;46.72;;;;;;;6.13;81.12;101447.97;4976152;28;20511;-81
2022/11/30 04:48:22;;;;;;;72.80;44.08;;;;;;;5.96;80.65;101424.34;4992251;28;20536;-80
2022/11/30 04:50:52;;;;;;;72.47;44.47;;;;;;;6.00;80.20;101428.50;4996740;28;20053;-79
2022/11/30 04:53:19;;;;;;;67.13;42.50;;;;;;;6.18;80.15;101456.44;4995005;28;20064;-81
2022/11/30 04:55:48;;;;;;;66.97;44.50;;;;;;;6.06;80.52;101451.88;4998434;28;20046;-81
2022/11/30 04:58:17;;;;;;;71.43;44.55;;;;;;;6.07;80.29;101447.44;4996150;28;20519;-81
2022/11/30 05:00:44;;;;;;;60.65;41.38;;;;;;;5.41;80.11;101341.28;4997212;28;20068;-81
2022/11/30 05:03:13;;;;;;;69.53;43.10;;;;;;;6.07;80.43;101452.72;4996835;28;20519;-80
2022/11/30 05:05:40;;;;;;;66.65;43.70;;;;;;;6.03;80.43;101456.47;4999571;28;20468;-81
2022/11/30 05:08:08;;;;;;;66.47;44.72;;;;;;;6.01;80.76;101453.91;4997194;28;20053;-81
2022/11/30 05:10:35;;;;;;;65.13;43.30;;;;;;;6.01;80.87;101453.06;5002560;28;20238;-81
2022/11/30 05:13:03;;;;;;;71.75;44.55;;;;;;;5.96;80.11;101429.63;4993458;28;20571;-81
2022/11/30 05:15:30;;;;;;;71.30;43.95;;;;;;;5.86;79.87;101407.31;4993897;28;20053;-79
2022/11/30 05:17:59;;;;;;;62.58;42.17;;;;;;;6.08;78.86;101454.44;4997157;28;20421;-79
2022/11/30 05:20:27;;;;;;;65.30;42.55;;;;;;;5.98;79.00;101443.56;4996141;28;20578;-82
2022/11/30 05:22:54;;;;;;;68.70;42.58;;;;;;;5.93;79.31;101441.16;4999608;28;20485;-80
2022/11/30 05:25:21;;;;;;;72.07;42.55;;;;;;;5.89;79.90;101439.59;4993455;28;20350;-80
2022/11/30 05:27:51;;;;;;;68.10;42.55;;;;;;;5.97;79.85;101448.00;4996049;28;20181;-81
2022/11/30 05:30:18;;;;;;;65.40;44.65;;;;;;;5.85;79.83;101413.50;4998711;28;20326;-82
2022/11/30 05:32:45;;;;;;;67.20;44.30;;;;;;;6.12;79.72;101453.34;4994558;28;20050;-81
2022/11/30 05:35:12;;;;;;;70.97;45.00;;;;;;;6.10;79.46;101463.94;4993956;28;20518;-81
2022/11/30 05:37:41;;;;;;;65.78;43.70;;;;;;;6.12;79.50;101459.44;4992811;28;20050;-81
2022/11/30 05:40:08;;;;;;;71.63;45.92;;;;;;;6.08;79.51;101443.88;4979782;28;20050;-82
2022/11/30 05:42:36;;;;;;;69.38;44.05;;;;;;;6.13;79.55;101460.28;4979500;28;20089;-83
2022/11/30 05:45:04;;;;;;;68.38;44.75;;;;;;;5.44;79.28;101337.66;4992211;28;20054;-81
2022/11/30 05:47:30;;;;;;;70.57;45.83;;;;;;;6.04;79.90;101445.84;4976595;28;20058;-80
2022/11/30 05:50:01;;;;;;;69.30;46.33;;;;;;;6.20;79.83;101470.41;4992903;28;20057;-80
2022/11/30 05:52:53;;;;;;;72.32;46.58;;;;;;;6.13;79.98;101462.94;5001974;28;20053;-80
2022/11/30 05:55:44;;;;;;;65.15;43.35;;;;;;;5.44;79.54;101351.69;5002740;28;20057;-80
2022/11/30 05:58:11;;;;;;;66.97;45.47;;;;;;;6.13;80.43;101476.94;4993027;28;20064;-81
2022/11/30 06:00:38;;;;;;;72.78;47.28;;;;;;;5.98;80.67;101460.22;5002245;28;20204;-80
2022/11/30 06:03:04;;;;;;;65.07;45.88;;;;;;;6.04;81.04;101469.56;5000169;28;20554;-81
2022/11/30 06:05:33;;;;;;;69.72;47.08;;;;;;;6.03;81.30;101465.22;5000769;28;20320;-81
2022/11/30 06:08:00;;;;;;;72.43;46.70;;;;;;;6.20;80.65;101483.59;5001401;28;20445;-80
2022/11/30 06:10:27;;;;;;;66.43;43.97;;;;;;;6.14;80.81;101473.41;5004387;28;20068;-81
2022/11/30 06:12:54;;;;;;;71.53;44.95;;;;;;;6.13;80.92;101479.59;4999652;28;20439;-79
2022/11/30 06:15:21;;;;;;;65.25;43.83;;;;;;;5.81;81.14;101422.53;5012536;28;20049;-81
2022/11/30 06:17:47;;;;;;;69.28;46.80;;;;;;;5.95;80.76;101438.47;5000112;28;20593;-83
2022/11/30 06:20:14;;;;;;;70.47;47.45;;;;;;;6.25;80.95;101482.47;4997616;28;20327;-81
2022/11/30 06:22:44;;;;;;;70.18;47.05;;;;;;;5.69;80.67;101395.94;4995911;28;20065;-80
2022/11/30 06:25:13;;;;;;;73.05;47.65;;;;;;;5.90;80.90;101420.25;5010550;28;20060;-80
2022/11/30 06:27:42;;;;;;;59.78;44.42;;;;;;;6.30;80.75;101475.16;5019841;28;20511;-78
2022/11/30 06:30:09;;;;;;;65.18;44.85;;;;;;;5.51;80.86;101346.91;5017458;28;20061;-80
2022/11/30 06:32:38;;;;;;;66.68;46.88;;;;;;;6.40;81.10;101490.34;5000047;28;20053;-81
2022/11/30 06:35:08;;;;;;;71.00;46.15;;;;;;;6.40;81.09;101482.44;5000573;28;20064;-81
2022/11/30 06:37:35;;;;;;;81.15;46.55;;;;;;;6.32;80.60;101468.00;4999259;28;20283;-82
2022/11/30 06:40:03;;;;;;;72.18;47.35;;;;;;;6.39;81.11;101480.75;4998137;28;20143;-80
2022/11/30 06:42:34;;;;;;;;;;;;;;;6.58;80.65;101493.75;5000074;28;20582;-80
2022/11/30 06:45:02;;;;;;;69.97;46.33;;;;;;;6.08;80.26;101428.91;4998763;28;19928;-81
2022/11/30 06:47:29;;;;;;;67.47;46.70;;;;;;;6.33;80.92;101469.69;4999258;28;20510;-81
2022/11/30 06:49:55;;;;;;;67.32;47.17;;;;;;;6.52;79.72;101496.72;5004316;28;20518;-82
2022/11/30 06:52:22;;;;;;;69.70;44.78;;;;;;;5.81;78.65;101364.56;5006383;28;20134;-80
2022/11/30 06:54:49;;;;;;;69.85;44.80;;;;;;;6.69;78.28;101493.09;5004008;28;20152;-80
2022/11/30 06:57:16;;;;;;;70.60;43.40;;;;;;;6.40;78.86;101444.69;5004236;28;20507;-81
2022/11/30 06:59:45;;;;;;;63.55;43.05;;;;;;;6.68;77.63;101491.41;5004302;28;20053;-83
2022/11/30 07:02:15;;;;;;;66.63;43.25;;;;;;;5.84;77.44;101351.22;4998782;28;20118;-81
2022/11/30 07:04:44;;;;;;;62.40;41.05;;;;;;;6.38;77.46;101443.91;4996918;28;20535;-81
2022/11/30 07:07:14;;;;;;;65.60;42.78;;;;;;;6.67;77.33;101483.56;4997129;28;20370;-81
2022/11/30 07:09:44;;;;;;;63.97;41.60;;;;;;;6.40;77.58;101440.25;4998228;28;20119;-79
2022/11/30 07:12:11;;;;;;;63.53;40.90;;;;;;;6.46;76.84;101441.69;4999113;28;20057;-81
2022/11/30 07:14:40;;;;;;;66.78;41.28;;;;;;;6.48;76.48;101441.59;4999028;28;20338;-78
2022/11/30 07:17:13;;;;;;;56.95;37.67;;;;;;;6.61;76.16;101464.53;4997705;28;20423;-81
2022/11/30 07:19:40;;;;;;;64.82;42.55;;;;;;;6.54;76.01;101457.06;4999901;28;20225;-80
2022/11/30 07:22:06;;;;;;;62.90;41.10;;;;;;;6.59;76.79;101482.22;4998204;28;20518;-80
2022/11/30 07:27:21;;;;;;;63.92;39.78;;;;;;;6.57;75.64;101463.00;4996487;28;20052;-82
2022/11/30 07:29:50;;;;;;;60.33;41.97;;;;;;;6.57;76.02;101463.00;4997322;28;20448;-82
2022/11/30 07:32:18;;;;;;;64.47;42.78;;;;;;;6.24;75.89;101405.16;4993808;28;20089;-83
2022/11/30 07:34:45;;;;;;;64.80;41.55;;;;;;;6.01;75.72;101359.03;4983184;28;20124;-81
2022/11/30 07:37:12;;;;;;;64.00;42.25;;;;;;;6.73;76.44;101499.91;4996429;28;20049;-82
2022/11/30 07:39:41;;;;;;;66.35;44.08;;;;;;;6.75;76.14;101492.75;4994258;28;20287;-84
2022/11/30 07:42:08;;;;;;;65.88;42.10;;;;;;;5.91;76.46;101378.91;4990774;28;20503;-80
2022/11/30 07:44:34;;;;;;;68.60;44.47;;;;;;;6.78;76.33;101520.75;4993544;28;20458;-84
2022/11/30 07:47:04;;;;;;;72.00;43.17;;;;;;;5.69;76.39;101332.72;4992471;28;20049;-82
2022/11/30 07:49:31;;;;;;;64.63;43.80;;;;;;;5.98;76.93;101385.56;4995051;28;20142;-82
2022/11/30 07:52:03;;;;;;;66.50;44.58;;;;;;;6.64;76.53;101501.28;4993315;28;20549;-82
2022/11/30 07:54:30;;;;;;;70.80;44.88;;;;;;;5.89;75.99;101380.78;4994493;28;20057;-81
2022/11/30 07:56:57;;;;;;;64.72;45.53;;;;;;;6.77;77.05;101538.38;4996714;28;20420;-80
2022/11/30 07:59:23;;;;;;;60.63;42.45;;;;;;;6.47;76.78;101480.31;4998354;28;20053;-84
2022/11/30 08:01:50;;;;;;;65.22;43.83;;;;;;;5.15;76.37;101255.88;4997279;28;20054;-81
2022/11/30 08:04:20;;;;;;;69.60;44.35;;;;;;;6.67;76.41;101496.78;4999970;28;20345;-81
2022/11/30 08:06:47;;;;;;;65.07;45.00;;;;;;;6.62;76.14;101497.88;4998075;28;20053;-82
2022/11/30 08:09:15;;;;;;;75.07;47.63;;;;;;;6.86;75.93;101531.72;4995871;28;20671;-82
2022/11/30 08:11:47;;;;;;;71.13;44.03;;;;;;;6.53;76.02;101474.69;4997780;28;20045;-81
2022/11/30 08:14:21;;;;;;;68.95;45.55;;;;;;;6.85;76.18;101519.47;4995723;28;20057;-82
2022/11/30 08:16:50;;;;;;;69.70;44.75;;;;;;;6.66;76.62;101501.22;4995218;28;20049;-82
2022/11/30 08:19:17;;;;;;;72.38;45.65;;;;;;;6.48;76.45;101468.84;5007370;28;20063;-82
2022/11/30 08:21:46;;;;;;;68.85;46.20;;;;;;;5.84;75.59;101364.38;4994300;28;20053;-80
2022/11/30 08:24:13;;;;;;;73.43;46.38;;;;;;;6.45;75.82;101469.00;4980583;28;20053;-80
2022/11/30 08:26:43;;;;;;;76.32;48.47;;;;;;;6.46;76.27;101449.59;5009528;28;20577;-81
2022/11/30 08:29:13;;;;;;;78.13;49.28;;;;;;;5.60;76.66;101317.41;5002390;28;20884;-81
2022/11/30 08:31:40;;;;;;;79.55;49.28;;;;;;;6.88;76.40;101526.34;4989507;28;20068;-82
2022/11/30 08:34:11;;;;;;;81.60;49.83;;;;;;;6.72;76.22;101485.00;4990905;28;20053;-80
2022/11/30 08:36:39;;;;;;;73.38;48.13;;;;;;;6.95;76.09;101510.06;5010999;28;20061;-82
2022/11/30 08:39:09;;;;;;;74.30;48.67;;;;;;;7.06;75.38;101527.88;4995912;28;20096;-82
2022/11/30 08:41:38;;;;;;;77.80;49.55;;;;;;;6.85;76.15;101512.38;4997323;28;20459;-81
2022/11/30 08:44:06;;;;;;;83.63;52.00;;;;;;;6.59;76.21;101455.84;4997410;28;20435;-82
2022/11/30 08:46:33;;;;;;;80.10;51.42;;;;;;;6.42;76.50;101426.97;4998165;28;20661;-82
2022/11/30 08:49:17;;;;;;;76.70;50.60;;;;;;;6.98;76.26;101509.88;4993646;28;20093;-83
2022/11/30 08:51:50;;;;;;;84.68;49.90;;;;;;;7.20;75.83;101537.63;4993082;28;20056;-83
2022/11/30 08:54:43;;;;;;;72.00;49.47;;;;;;;6.91;75.55;101492.69;4989621;28;20154;-81
2022/11/30 08:57:30;;;;;;;72.05;49.38;;;;;;;7.18;75.17;101542.16;4994809;28;20084;-83
2022/11/30 08:59:57;;;;;;;82.05;50.95;;;;;;;7.09;75.54;101518.94;4995540;28;20050;-81
2022/11/30 09:02:24;;;;;;;76.53;50.80;;;;;;;7.28;74.65;101544.16;4998484;28;20064;-80
2022/11/30 09:04:53;;;;;;;71.45;49.97;;;;;;;7.23;75.15;101548.88;4999605;28;20069;-81
2022/11/30 09:07:21;;;;;;;82.90;52.42;;;;;;;7.27;75.15;101542.44;4996314;28;20136;-82
2022/11/30 09:09:49;;;;;;;76.55;50.60;;;;;;;7.00;75.21;101492.16;4996455;28;20111;-79
2022/11/30 09:12:16;;;;;;;80.68;51.97;;;;;;;7.25;76.42;101543.47;5012615;28;20282;-83
2022/11/30 09:14:44;;;;;;;79.30;50.70;;;;;;;6.85;76.22;101478.06;4996588;28;20081;-82
2022/11/30 09:17:14;;;;;;;80.32;54.95;;;;;;;6.99;76.40;101495.75;4994068;28;20207;-81
2022/11/30 09:19:41;;;;;;;79.80;53.38;;;;;;;6.60;76.26;101428.53;4996250;28;20049;-83
2022/11/30 09:22:08;;;;;;;82.70;53.83;;;;;;;7.20;76.64;101520.00;4997762;28;20120;-83
2022/11/30 09:24:36;;;;;;;85.10;53.25;;;;;;;6.56;75.80;101407.72;4996014;28;20053;-81
2022/11/30 09:27:03;;;;;;;81.18;53.55;;;;;;;7.22;76.05;101506.72;4995491;28;20439;-79
2022/11/30 09:29:30;;;;;;;82.22;52.28;;;;;;;6.71;76.13;101421.78;4990191;28;20053;-81
2022/11/30 09:31:57;;;;;;;82.10;52.05;;;;;;;7.24;76.16;101520.66;4997498;28;20252;-81
2022/11/30 09:34:23;;;;;;;77.72;50.67;;;;;;;7.22;75.91;101504.06;5007169;28;20107;-82
2022/11/30 09:36:50;;;;;;;86.20;53.95;;;;;;;7.49;76.28;101551.72;5028659;28;20076;-81
2022/11/30 09:39:17;;;;;;;84.65;53.67;;;;;;;7.39;76.04;101543.50;5009120;28;20084;-79
2022/11/30 09:42:12;;;;;;;80.63;54.63;;;;;;;7.45;76.94;101551.06;5003763;28;20296;-80
2022/11/30 09:45:10;;;;;;;84.97;53.92;;;;;;;7.48;75.85;101556.16;4995610;28;20188;-80
2022/11/30 09:47:47;;;;;;;81.63;54.45;;;;;;;7.46;76.85;101549.28;4996720;28;20136;-81
2022/11/30 09:50:20;;;;;;;90.22;57.50;;;;;;;7.52;76.49;101555.97;4995547;28;20176;-81
2022/11/30 09:53:01;;;;;;;87.20;56.53;;;;;;;7.38;77.31;101540.94;4999140;28;20049;-80
2022/11/30 09:55:53;;;;;;;82.72;56.47;;;;;;;7.37;77.44;101531.34;4993542;28;20175;-82
2022/11/30 09:58:42;;;;;;;89.65;57.30;;;;;;;7.48;77.46;101544.75;4996986;28;20781;-82
2022/11/30 10:01:19;;;;;;;93.88;61.25;;;;;;;7.09;78.68;101489.88;4998776;28;20720;-80
2022/11/30 10:03:47;;;;;;;87.85;59.40;;;;;;;6.55;78.00;101395.44;4994828;28;20085;-82
2022/11/30 10:06:30;;;;;;;90.22;61.10;;;;;;;6.98;78.41;101467.63;4993825;28;20313;-81
2022/11/30 10:09:03;;;;;;;93.20;61.55;;;;;;;7.45;79.00;101540.50;4996341;28;20184;-81
2022/11/30 10:11:43;;;;;;;80.35;55.17;;;;;;;7.58;77.34;101550.31;4995692;28;20686;-81
2022/11/30 10:14:22;;;;;;;80.43;53.80;;;;;;;7.13;77.03;101465.84;5007537;28;20091;-82
2022/11/30 10:16:57;;;;;;;82.75;54.03;;;;;;;7.36;77.16;101496.16;5004891;28;20641;-81
2022/11/30 10:19:27;;;;;;;82.82;57.15;;;;;;;7.19;77.12;101464.66;4997877;28;20163;-82
2022/11/30 10:22:11;;;;;;;83.78;55.03;;;;;;;7.41;77.13;101502.00;4999919;28;20052;-82
2022/11/30 10:25:02;;;;;;;79.57;53.50;;;;;;;7.45;76.75;101513.22;4994210;28;20053;-83
2022/11/30 10:27:48;;;;;;;81.57;53.78;;;;;;;7.00;77.69;101455.19;4989982;28;20045;-81
2022/11/30 10:30:29;;;;;;;83.13;54.00;;;;;;;7.49;78.66;101531.44;5007799;28;20053;-80
2022/11/30 10:33:25;;;;;;;88.05;55.08;;;;;;;7.35;78.40;101510.28;5010811;28;20177;-78
2022/11/30 10:35:57;;;;;;;81.88;55.97;;;;;;;7.45;78.80;101508.81;4987832;28;20156;-80
2022/11/30 10:38:29;;;;;;;84.80;54.67;;;;;;;7.57;78.55;101527.47;4998957;28;20053;-81
2022/11/30 10:41:05;;;;;;;81.07;54.13;;;;;;;7.61;78.51;101524.56;5001969;28;20423;-79
2022/11/30 10:44:11;;;;;;;76.30;53.20;;;;;;;7.51;78.28;101496.16;4997801;28;20106;-82
2022/11/30 10:46:44;;;;;;;78.80;54.55;;;;;;;7.64;78.41;101520.88;4988934;28;20056;-80
2022/11/30 10:49:19;;;;;;;79.32;54.35;;;;;;;7.30;79.04;101467.47;4999227;28;20053;-81
2022/11/30 10:51:53;;;;;;;80.72;56.75;;;;;;;6.90;79.33;101401.25;4993253;28;20164;-80
2022/11/30 10:54:24;;;;;;;86.05;58.22;;;;;;;7.19;78.75;101447.00;4998470;28;20168;-79
2022/11/30 10:56:52;;;;;;;82.07;56.22;;;;;;;6.96;79.13;101416.69;4996083;28;20621;-82
2022/11/30 10:59:26;;;;;;;85.80;56.42;;;;;;;6.07;78.40;101250.63;5002575;28;20576;-82
2022/11/30 11:01:53;;;;;;;87.13;56.72;;;;;;;7.15;79.23;101437.56;4995973;28;20467;-80
2022/11/30 11:04:23;;;;;;;78.57;55.45;;;;;;;7.08;79.26;101399.25;4993319;28;20423;-81
2022/11/30 11:06:55;;;;;;;84.82;57.17;;;;;;;7.68;78.98;101482.75;4995536;28;20516;-81
2022/11/30 11:09:41;;;;;;;87.32;56.28;;;;;;;7.68;78.24;101485.38;4998478;28;20057;-83
2022/11/30 11:12:29;;;;;;;81.38;52.05;;;;;;;7.93;77.03;101497.88;4997312;28;20085;-82
2022/11/30 11:15:18;;;;;;;74.15;51.40;;;;;;;7.70;76.86;101475.56;4992872;28;20517;-81
2022/11/30 11:17:45;;;;;;;79.20;53.45;;;;;;;7.58;76.80;101444.63;4996272;28;20053;-82
2022/11/30 11:20:33;;;;;;;76.10;49.80;;;;;;;7.97;76.19;101499.41;4995579;28;20049;-82
2022/11/30 11:23:03;;;;;;;78.75;50.17;;;;;;;7.98;76.01;101494.97;5000659;28;20045;-81
2022/11/30 11:25:41;;;;;;;77.22;51.58;;;;;;;7.50;75.81;101410.75;5007636;28;20585;-81
2022/11/30 11:28:20;;;;;;;76.82;50.35;;;;;;;7.99;75.93;101486.09;5016593;28;20576;-82
2022/11/30 11:30:55;;;;;;;80.18;53.05;;;;;;;8.01;75.98;101485.06;5012528;28;20455;-81
2022/11/30 11:33:28;;;;;;;71.38;49.97;;;;;;;7.83;75.25;101455.31;4989197;28;20330;-81
2022/11/30 11:36:13;;;;;;;;;;;;;;;8.01;74.71;101479.75;4987779;28;20053;-82
2022/11/30 11:38:44;;;;;;;69.50;43.67;;;;;;;8.14;74.32;101482.47;5005849;28;19943;-81